Time;durP1;ratioP1;P1;durP2;ratioP2;P2;SDS_P1;SDS_P2;PMS_P1;PMS_P2;Temp;Humidity;BMP_temperature;BMP_pressure;BME280_temperature;BME280_humidity;BME280_pressure;Samples;Min_cycle;Max_cycle;Signal;HPM_P1;HPM_P2
2022/02/08 00:04:40;;;;;;;11.45;1.95;;;;;;;3.98;100.00;102116.88;9994907;29;20130;-67
2022/02/08 00:09:37;;;;;;;20.73;3.10;;;;;;;4.00;100.00;102112.03;9996177;29;20103;-65
2022/02/08 00:14:39;;;;;;;14.32;1.80;;;;;;;3.98;100.00;102097.94;10002699;29;20189;-65
2022/02/08 00:19:36;;;;;;;15.77;2.30;;;;;;;4.06;100.00;102106.72;10003516;29;20331;-65
2022/02/08 00:24:33;;;;;;;12.00;2.00;;;;;;;3.98;100.00;102092.50;10002461;29;20100;-65
2022/02/08 00:29:29;;;;;;;12.88;2.10;;;;;;;3.91;100.00;102091.00;10003884;29;20076;-65
2022/02/08 00:34:27;;;;;;;15.68;2.05;;;;;;;3.91;100.00;102097.25;10003737;29;20044;-66
2022/02/08 00:39:24;;;;;;;11.52;1.58;;;;;;;3.91;100.00;102091.81;9993390;29;20144;-66
2022/02/08 00:44:30;;;;;;;15.95;2.45;;;;;;;3.95;100.00;102076.75;9984878;29;20080;-66
2022/02/08 00:49:32;;;;;;;18.73;3.20;;;;;;;3.91;100.00;102078.31;10003743;29;20134;-65
2022/02/08 00:54:28;;;;;;;13.52;2.22;;;;;;;3.96;100.00;102074.88;10005673;29;20083;-66
2022/02/08 00:59:25;;;;;;;13.85;2.00;;;;;;;3.93;100.00;102057.22;10007348;29;20071;-66
2022/02/08 01:04:24;;;;;;;15.63;1.80;;;;;;;3.88;100.00;102070.66;10001690;29;20074;-65
2022/02/08 01:09:29;;;;;;;15.23;2.65;;;;;;;4.00;100.00;102047.09;10002592;29;20049;-64
2022/02/08 01:14:26;;;;;;;13.55;2.15;;;;;;;4.05;100.00;102040.94;10004290;29;20063;-66
2022/02/08 01:19:23;;;;;;;12.90;2.10;;;;;;;4.06;100.00;102034.50;10008202;29;20066;-67
2022/02/08 01:24:20;;;;;;;13.35;2.35;;;;;;;4.07;100.00;102027.19;9993384;29;20044;-67
2022/02/08 01:34:41;;;;;;;20.80;4.80;;;;;;;4.09;100.00;102025.06;10007938;29;20220;-66
2022/02/08 01:40:04;;;;;;;13.32;2.53;;;;;;;4.01;100.00;102023.53;9995802;29;20075;-65
2022/02/08 01:50:12;;;;;;;15.73;2.65;;;;;;;3.99;100.00;102012.97;10000709;29;20083;-65
2022/02/08 01:55:14;;;;;;;17.40;2.90;;;;;;;3.95;100.00;102001.00;10006381;29;20079;-65
2022/02/08 02:00:13;;;;;;;15.57;2.53;;;;;;;3.84;100.00;101993.75;10001685;29;20139;-66
2022/02/08 02:05:11;;;;;;;19.67;3.42;;;;;;;3.82;100.00;102001.28;9999522;29;20051;-66
2022/02/08 02:10:07;;;;;;;19.30;3.92;;;;;;;3.80;100.00;102003.38;9998605;29;20131;-67
2022/02/08 02:15:06;;;;;;;24.00;3.20;;;;;;;3.78;100.00;101991.97;9998235;29;20135;-66
2022/02/08 02:20:04;;;;;;;19.60;3.50;;;;;;;3.64;100.00;101972.50;10000237;29;20052;-66
2022/02/08 02:25:00;;;;;;;19.33;5.18;;;;;;;3.62;100.00;101979.22;10006723;29;20583;-65
2022/02/08 02:29:57;;;;;;;22.08;5.20;;;;;;;3.56;100.00;101981.03;10004402;29;20075;-66
2022/02/08 02:34:53;;;;;;;12.10;5.22;;;;;;;3.50;100.00;101966.56;10009635;29;20134;-65
2022/02/08 02:39:50;;;;;;;22.75;6.28;;;;;;;3.49;100.00;101950.59;10001812;29;20140;-65
2022/02/08 02:44:46;;;;;;;12.93;4.30;;;;;;;3.47;100.00;101945.41;10005861;29;20083;-65
2022/02/08 02:49:43;;;;;;;20.42;5.75;;;;;;;3.64;100.00;101939.25;9999927;29;20139;-65
2022/02/08 02:54:39;;;;;;;18.33;6.63;;;;;;;3.67;100.00;101938.78;10004329;29;20127;-65
2022/02/08 02:59:37;;;;;;;23.23;7.25;;;;;;;3.73;100.00;101932.38;10014857;29;20090;-65
2022/02/08 03:20:05;;;;;;;20.70;8.55;;;;;;;3.83;100.00;101942.56;9999935;29;20138;-67
2022/02/08 03:25:02;;;;;;;27.80;9.52;;;;;;;3.92;100.00;101952.78;9996935;29;20127;-67
2022/02/08 03:29:59;;;;;;;16.50;7.60;;;;;;;3.99;100.00;101920.97;10001114;29;20110;-66
2022/02/08 03:34:55;;;;;;;24.63;9.70;;;;;;;4.03;100.00;101931.28;10005003;29;20052;-67
2022/02/08 03:40:19;;;;;;;28.92;10.75;;;;;;;4.15;100.00;101916.63;9997068;29;20052;-68
2022/02/08 03:45:13;;;;;;;30.15;11.00;;;;;;;4.19;100.00;101903.41;9977942;29;20083;-67
2022/02/08 03:50:09;;;;;;;24.88;11.35;;;;;;;4.18;100.00;101908.03;9993237;29;20056;-67
2022/02/08 03:55:07;;;;;;;23.13;10.45;;;;;;;4.25;100.00;101907.84;9996942;29;20083;-67
2022/02/08 04:00:04;;;;;;;27.02;12.70;;;;;;;4.27;100.00;101913.84;9997084;29;20048;-67
2022/02/08 04:05:13;;;;;;;32.15;12.32;;;;;;;4.31;100.00;101909.56;9993642;29;20050;-68
2022/02/08 04:10:13;;;;;;;27.92;11.05;;;;;;;4.36;100.00;101904.25;10007861;29;20076;-67
2022/02/08 04:36:08;;;;;;;27.73;13.80;;;;;;;4.63;100.00;101892.72;10002275;29;20051;-66
2022/02/08 04:41:09;;;;;;;29.23;15.45;;;;;;;4.74;100.00;101889.09;9998443;29;20087;-67
2022/02/08 04:46:23;;;;;;;27.67;12.77;;;;;;;4.75;100.00;101874.47;9994004;29;20512;-67
2022/02/08 04:51:27;;;;;;;32.92;16.15;;;;;;;4.81;100.00;101873.47;9995228;29;20060;-67
2022/02/08 04:56:35;;;;;;;30.80;14.15;;;;;;;4.84;100.00;101875.66;9999230;29;20079;-65
2022/02/08 05:02:02;;;;;;;31.83;16.60;;;;;;;4.94;100.00;101893.94;10005956;29;20127;-65
2022/02/08 05:49:05;;;;;;;31.92;18.38;;;;;;;5.38;100.00;101844.31;9993577;29;20074;-65
2022/02/08 05:54:02;;;;;;;33.53;18.00;;;;;;;5.40;100.00;101842.97;9996332;29;20526;-66
2022/02/08 05:58:58;;;;;;;31.60;19.55;;;;;;;5.40;100.00;101828.59;9997127;29;20078;-65
2022/02/08 06:03:56;;;;;;;36.90;19.38;;;;;;;5.43;100.00;101825.38;9991973;29;20155;-65
2022/02/08 06:08:52;;;;;;;40.25;18.17;;;;;;;5.42;100.00;101818.31;9988846;29;20156;-66
2022/02/08 06:13:51;;;;;;;45.35;23.25;;;;;;;5.48;100.00;101826.25;9992458;29;20123;-66
2022/02/08 06:18:49;;;;;;;42.03;21.83;;;;;;;5.53;100.00;101832.81;10004379;29;20082;-66
2022/02/08 06:23:45;;;;;;;36.50;21.00;;;;;;;5.56;100.00;101841.25;10010610;29;20665;-66
2022/02/08 06:28:43;;;;;;;36.75;21.50;;;;;;;5.56;100.00;101846.66;9995349;29;20123;-66
2022/02/08 06:33:40;;;;;;;42.38;22.50;;;;;;;5.63;100.00;101851.88;9997479;29;20045;-66
2022/02/08 06:38:36;;;;;;;46.42;23.40;;;;;;;5.62;100.00;101845.66;10005735;29;20570;-65
2022/02/08 06:43:33;;;;;;;43.67;23.25;;;;;;;5.69;100.00;101840.81;9989815;29;20079;-66
2022/02/08 06:48:30;;;;;;;43.85;23.13;;;;;;;5.74;100.00;101831.91;9996395;29;20513;-65
2022/02/08 06:53:27;;;;;;;40.97;24.23;;;;;;;5.81;100.00;101842.56;9993548;29;20055;-66
2022/02/08 06:58:30;;;;;;;46.85;25.08;;;;;;;5.88;100.00;101862.16;9996385;29;20035;-67
2022/02/08 07:03:26;;;;;;;40.58;23.63;;;;;;;5.93;100.00;101845.09;9990234;29;20574;-66
2022/02/08 07:08:24;;;;;;;42.92;24.48;;;;;;;5.95;100.00;101843.78;9999071;29;20080;-66
2022/02/08 07:13:20;;;;;;;48.63;24.35;;;;;;;5.98;100.00;101837.84;9986663;29;20096;-66
2022/02/08 07:18:17;;;;;;;42.33;23.35;;;;;;;6.02;100.00;101825.38;9975579;29;20059;-65
2022/02/08 07:23:13;;;;;;;41.35;23.63;;;;;;;6.06;100.00;101821.06;9974219;29;20044;-65
2022/02/08 07:28:10;;;;;;;44.95;22.17;;;;;;;6.06;100.00;101829.22;9983433;29;20699;-68
2022/02/08 07:33:06;;;;;;;51.20;24.60;;;;;;;6.09;100.00;101815.13;9990613;29;20143;-66
2022/02/08 07:38:12;;;;;;;45.53;23.23;;;;;;;6.14;100.00;101829.81;10005430;29;20044;-67
2022/02/08 07:43:08;;;;;;;50.13;23.33;;;;;;;6.15;100.00;101821.41;9986492;29;20245;-68
2022/02/08 07:48:05;;;;;;;45.22;22.42;;;;;;;6.11;100.00;101810.25;9989274;29;20131;-67
2022/02/08 07:53:01;;;;;;;53.60;24.65;;;;;;;6.15;100.00;101815.16;10005245;29;20479;-67
2022/02/08 07:57:58;;;;;;;50.17;24.95;;;;;;;6.18;100.00;101798.34;9998219;29;20106;-67
2022/02/08 08:02:54;;;;;;;50.47;26.88;;;;;;;6.23;100.00;101817.38;9992625;29;20514;-67
2022/02/08 08:07:50;;;;;;;57.65;26.75;;;;;;;6.28;100.00;101814.69;9982751;29;20075;-68
2022/02/08 08:12:51;;;;;;;49.17;26.30;;;;;;;6.32;100.00;101815.81;9987353;29;20498;-68
2022/02/08 08:18:14;;;;;;;51.38;23.40;;;;;;;6.34;100.00;101808.22;9987032;29;20107;-67
2022/02/08 08:23:10;;;;;;;47.30;24.10;;;;;;;6.38;100.00;101803.88;9987498;29;20096;-67
2022/02/08 08:28:09;;;;;;;51.03;24.25;;;;;;;6.45;100.00;101809.94;9986437;29;20511;-68
2022/02/08 08:33:07;;;;;;;44.70;21.90;;;;;;;6.55;100.00;101808.34;10015720;29;20764;-67
2022/02/08 08:38:25;;;;;;;48.78;22.48;;;;;;;6.63;100.00;101813.25;10007052;29;20060;-67
2022/02/08 08:53:53;;;;;;;37.25;21.15;;;;;;;6.80;100.00;101816.63;9984660;29;20044;-67
2022/02/08 08:58:49;;;;;;;38.17;17.80;;;;;;;6.85;100.00;101829.41;9980657;29;20131;-68
2022/02/08 09:03:48;;;;;;;34.92;20.50;;;;;;;6.90;100.00;101822.09;9985630;29;20139;-67
2022/02/08 09:08:50;;;;;;;34.25;17.95;;;;;;;6.93;100.00;101821.53;9992967;29;20117;-68
2022/02/08 09:14:02;;;;;;;29.30;18.58;;;;;;;6.99;100.00;101824.31;9990237;29;20079;-64
2022/02/08 09:24:36;;;;;;;29.00;14.02;;;;;;;7.09;100.00;101808.00;9987146;29;20127;-63
2022/02/08 09:29:40;;;;;;;29.92;13.15;;;;;;;7.10;100.00;101793.31;9984009;29;20100;-62
2022/02/08 09:34:41;;;;;;;22.95;11.30;;;;;;;7.18;100.00;101784.66;9989507;29;20052;-62
2022/02/08 09:39:42;;;;;;;22.02;11.40;;;;;;;7.20;100.00;101820.56;9992612;29;20048;-63
2022/02/08 09:44:38;;;;;;;27.45;13.93;;;;;;;7.21;100.00;101822.19;10001070;29;20044;-63
2022/02/08 09:49:41;;;;;;;21.90;10.77;;;;;;;7.23;100.00;101803.69;10002021;29;20360;-61
2022/02/08 09:54:38;;;;;;;19.52;10.10;;;;;;;7.25;100.00;101817.84;9999629;29;20088;-62
2022/02/08 09:59:35;;;;;;;21.02;9.23;;;;;;;7.26;100.00;101824.91;10017986;29;20134;-63
2022/02/08 10:04:31;;;;;;;16.42;9.15;;;;;;;7.28;100.00;101843.69;9996415;29;20115;-62
2022/02/08 10:09:31;;;;;;;26.70;9.73;;;;;;;7.30;100.00;101842.34;9995888;29;20052;-62
2022/02/08 10:25:16;;;;;;;24.55;8.88;;;;;;;7.32;100.00;101859.22;10003741;29;20056;-62
2022/02/08 10:40:46;;;;;;;19.55;7.78;;;;;;;7.40;100.00;101876.91;9991965;29;20118;-66
2022/02/08 10:45:43;;;;;;;22.90;8.70;;;;;;;7.44;100.00;101882.66;9988270;29;20578;-66
2022/02/08 10:50:46;;;;;;;18.67;7.95;;;;;;;7.42;100.00;101876.66;10010965;29;20522;-65
2022/02/08 10:55:55;;;;;;;19.90;7.50;;;;;;;7.46;100.00;101883.19;9987479;29;20539;-65
2022/02/08 11:01:16;;;;;;;13.35;7.70;;;;;;;7.45;100.00;101881.56;10023232;29;20040;-66
2022/02/08 11:22:07;;;;;;;18.52;7.38;;;;;;;7.53;100.00;101889.22;9976206;29;20126;-65
2022/02/08 11:27:11;;;;;;;15.65;7.10;;;;;;;7.49;100.00;101894.34;9988387;29;20043;-66
2022/02/08 11:32:21;;;;;;;14.43;6.57;;;;;;;7.51;100.00;101891.38;9989770;29;20040;-65
2022/02/08 11:43:32;;;;;;;13.15;7.72;;;;;;;7.55;100.00;101915.06;9986138;29;20059;-63
2022/02/08 11:48:41;;;;;;;25.33;10.20;;;;;;;7.58;100.00;101902.81;9979675;29;20044;-66
2022/02/08 12:08:55;;;;;;;22.38;8.23;;;;;;;7.57;100.00;101914.81;9987754;29;20124;-66
2022/02/08 12:34:46;;;;;;;21.70;9.88;;;;;;;7.66;100.00;101924.09;9998249;29;20486;-70
2022/02/08 12:50:53;;;;;;;17.35;8.25;;;;;;;7.61;100.00;101932.22;9977091;29;20089;-68
2022/02/08 12:55:58;;;;;;;19.00;7.53;;;;;;;7.66;100.00;101947.75;9974330;29;20111;-68
2022/02/08 13:01:21;;;;;;;20.15;6.88;;;;;;;7.62;100.00;101947.47;9967835;29;20400;-70
2022/02/08 14:09:18;;;;;;;5.88;2.78;;;;;;;7.81;100.00;101980.47;9988197;29;20071;-70
2022/02/08 14:19:32;;;;;;;5.55;3.40;;;;;;;7.96;100.00;101971.50;9996623;29;20048;-71
2022/02/08 15:06:37;;;;;;;4.38;1.88;;;;;;;7.85;100.00;102000.63;10002857;29;20111;-71
2022/02/08 15:11:32;;;;;;;2.58;1.00;;;;;;;7.87;100.00;102003.09;9980627;29;20048;-71
2022/02/08 15:16:30;;;;;;;2.28;1.00;;;;;;;7.82;100.00;102008.50;9978638;29;20052;-70
2022/02/08 15:21:31;;;;;;;2.92;1.10;;;;;;;7.82;100.00;102001.19;9972964;29;20471;-71
2022/02/08 15:26:28;;;;;;;4.70;1.10;;;;;;;7.80;100.00;102012.31;9967096;29;20139;-71
2022/02/08 15:31:25;;;;;;;3.67;1.23;;;;;;;7.82;100.00;102016.69;9984779;29;20135;-71
2022/02/08 15:36:21;;;;;;;3.72;1.17;;;;;;;7.82;100.00;102022.13;9990080;29;20119;-71
2022/02/08 15:41:18;;;;;;;2.55;1.00;;;;;;;7.75;100.00;102025.94;9992824;29;20075;-69
2022/02/08 15:46:20;;;;;;;4.25;1.08;;;;;;;7.76;100.00;102030.28;9987943;29;20044;-72
2022/02/08 15:56:28;;;;;;;4.97;1.30;;;;;;;7.74;100.00;102040.63;9983168;29;20471;-69
2022/02/08 16:05:06;;;;;;;5.30;1.27;;;;;;;7.73;100.00;102058.03;9987106;29;20076;-68
2022/02/08 16:17:42;;;;;;;3.63;1.50;;;;;;;7.64;100.00;102065.09;9991889;29;20044;-69
2022/02/08 16:22:43;;;;;;;3.53;1.55;;;;;;;7.62;100.00;102072.69;9987595;29;20071;-68
2022/02/08 16:27:57;;;;;;;4.28;2.00;;;;;;;7.65;100.00;102071.34;9997046;29;20083;-68
2022/02/08 16:33:13;;;;;;;5.70;1.58;;;;;;;7.63;100.00;102085.19;9987844;29;20097;-69
2022/02/08 16:59:08;;;;;;;9.43;3.17;;;;;;;7.44;100.00;102097.63;10010343;29;20044;-70
2022/02/08 17:04:08;;;;;;;9.30;3.58;;;;;;;7.43;100.00;102101.44;10001059;29;20111;-69
2022/02/08 17:09:08;;;;;;;15.00;3.60;;;;;;;7.44;100.00;102093.00;9991887;29;20048;-69
2022/02/08 17:19:56;;;;;;;14.25;4.15;;;;;;;7.44;100.00;102103.06;9979191;29;20167;-69
2022/02/08 17:50:32;;;;;;;9.48;2.70;;;;;;;7.34;100.00;102120.97;9980896;29;20131;-69
2022/02/08 17:55:29;;;;;;;4.63;2.00;;;;;;;7.35;100.00;102122.59;10003329;29;20052;-68
2022/02/08 18:00:28;;;;;;;6.35;1.75;;;;;;;7.38;100.00;102122.09;9997123;29;20510;-69
2022/02/08 18:05:25;;;;;;;4.72;1.35;;;;;;;7.37;100.00;102125.88;9980272;29;20058;-68
2022/02/08 18:10:24;;;;;;;4.75;1.88;;;;;;;7.42;100.00;102127.00;9977591;29;20063;-68
2022/02/08 18:15:22;;;;;;;3.53;1.58;;;;;;;7.42;100.00;102143.31;9975448;29;20808;-69
2022/02/08 18:53:51;;;;;;;5.03;2.17;;;;;;;7.51;100.00;102152.66;9985442;29;20159;-70
2022/02/08 19:07:06;;;;;;;3.47;1.63;;;;;;;7.52;100.00;102173.31;9990345;29;20071;-70
2022/02/08 19:12:16;;;;;;;6.00;2.05;;;;;;;7.54;100.00;102190.22;9987986;29;20577;-70
2022/02/08 19:18:15;;;;;;;3.90;2.08;;;;;;;7.56;100.00;102188.06;9990307;29;20826;-70
2022/02/08 19:22:32;;;;;;;4.00;2.03;;;;;;;7.59;100.00;102182.91;9991420;29;20111;-70
2022/02/08 19:27:29;;;;;;;4.28;1.30;;;;;;;7.58;100.00;102185.91;9992403;29;20498;-70
2022/02/08 19:32:25;;;;;;;2.63;1.15;;;;;;;7.58;100.00;102177.72;9986542;29;20056;-70
2022/02/08 19:37:23;;;;;;;3.35;1.33;;;;;;;7.61;100.00;102179.91;9989072;29;20099;-70
2022/02/08 19:42:21;;;;;;;4.90;3.13;;;;;;;7.58;100.00;102170.38;9993805;29;20495;-70
2022/02/08 19:47:17;;;;;;;5.93;3.80;;;;;;;7.58;100.00;102169.56;9988816;29;20052;-70
2022/02/08 19:52:14;;;;;;;5.93;3.97;;;;;;;7.62;100.00;102170.69;9992499;29;20052;-70
2022/02/08 19:57:20;;;;;;;6.30;4.05;;;;;;;7.65;100.00;102169.34;9981582;29;20052;-70
2022/02/08 20:02:17;;;;;;;7.93;5.68;;;;;;;7.67;100.00;102173.44;9989690;29;20115;-70
2022/02/08 20:07:14;;;;;;;8.38;6.22;;;;;;;7.67;100.00;102159.81;9984024;29;20079;-71
2022/02/08 20:12:11;;;;;;;9.38;6.75;;;;;;;7.73;100.00;102169.69;9994866;29;20079;-70
2022/02/08 20:17:19;;;;;;;13.35;7.95;;;;;;;7.67;100.00;102162.53;9981148;29;20530;-70
2022/02/08 20:22:15;;;;;;;9.32;6.88;;;;;;;7.74;100.00;102165.84;9990525;29;20496;-69
2022/02/08 20:32:27;;;;;;;12.73;7.13;;;;;;;7.80;100.00;102172.16;9999774;29;20145;-70
2022/02/08 20:37:23;;;;;;;8.93;6.43;;;;;;;7.87;100.00;102166.50;10000760;29;20611;-71
2022/02/08 20:42:24;;;;;;;10.20;7.55;;;;;;;7.89;100.00;102158.84;9991679;29;20079;-71
2022/02/08 20:47:26;;;;;;;8.23;6.00;;;;;;;7.77;100.00;102173.50;9991297;29;20056;-70
2022/02/08 20:52:24;;;;;;;12.07;6.70;;;;;;;7.76;100.00;102158.25;9992862;29;20048;-70
2022/02/08 20:57:26;;;;;;;9.32;6.75;;;;;;;7.79;100.00;102171.31;9997802;29;20055;-70
2022/02/08 21:02:34;;;;;;;9.85;7.35;;;;;;;7.85;100.00;102171.38;9989221;29;20052;-70
2022/02/08 21:07:31;;;;;;;9.50;7.07;;;;;;;7.80;100.00;102167.53;9997168;29;20548;-69
2022/02/08 21:12:40;;;;;;;11.43;8.10;;;;;;;7.82;100.00;102161.84;10007167;29;20099;-70
2022/02/08 21:17:40;;;;;;;14.15;10.05;;;;;;;7.88;100.00;102173.56;9992349;29;20052;-68
2022/02/08 21:22:36;;;;;;;13.60;8.40;;;;;;;7.92;100.00;102169.22;10002192;29;20119;-69
2022/02/08 21:27:35;;;;;;;12.57;9.02;;;;;;;7.87;100.00;102171.94;9993001;29;20048;-68
2022/02/08 21:33:01;;;;;;;15.43;9.55;;;;;;;7.88;100.00;102162.66;9998277;29;20570;-68
2022/02/08 21:53:36;;;;;;;15.60;9.75;;;;;;;7.87;100.00;102188.28;9983964;29;20087;-67
2022/02/08 21:58:33;;;;;;;19.02;10.40;;;;;;;7.85;100.00;102179.53;9985112;29;20052;-67
2022/02/08 22:03:30;;;;;;;15.85;10.10;;;;;;;7.85;100.00;102168.66;9990795;29;20106;-67
2022/02/08 22:08:34;;;;;;;18.25;10.48;;;;;;;7.89;100.00;102164.28;9990952;29;20044;-67
2022/02/08 22:23:56;;;;;;;15.40;11.18;;;;;;;7.91;100.00;102162.13;9996641;29;20418;-67
2022/02/08 22:33:51;;;;;;;18.80;12.60;;;;;;;7.86;100.00;102153.94;9996059;29;20056;-68
2022/02/08 22:38:56;;;;;;;19.40;12.80;;;;;;;7.88;100.00;102146.34;9998596;29;20047;-69
2022/02/08 22:44:01;;;;;;;18.38;12.82;;;;;;;7.91;100.00;102148.50;9998018;29;20044;-69
2022/02/08 22:48:57;;;;;;;20.15;13.10;;;;;;;7.91;100.00;102151.25;10008577;29;20422;-67
2022/02/08 22:53:54;;;;;;;18.55;12.98;;;;;;;7.90;100.00;102146.88;9998512;29;20071;-69
2022/02/08 22:58:52;;;;;;;19.00;13.45;;;;;;;7.92;100.00;102126.47;10001256;29;20064;-68
2022/02/08 23:03:48;;;;;;;24.52;15.30;;;;;;;7.94;100.00;102128.94;9995270;29;20416;-67
2022/02/08 23:08:45;;;;;;;24.17;15.35;;;;;;;7.94;100.00;102134.38;10023197;29;20098;-68
2022/02/08 23:13:48;;;;;;;31.58;16.67;;;;;;;7.93;100.00;102132.72;9996621;29;20525;-69
2022/02/08 23:39:45;;;;;;;22.75;15.65;;;;;;;7.97;100.00;102150.19;9999582;29;20048;-69
2022/02/08 23:44:42;;;;;;;23.98;16.75;;;;;;;7.96;100.00;102153.97;10002246;29;20128;-67
2022/02/08 23:49:50;;;;;;;26.48;18.27;;;;;;;8.01;100.00;102164.94;10000235;29;20095;-67
2022/02/08 23:54:49;;;;;;;23.42;14.35;;;;;;;7.96;100.00;102160.28;9998457;29;20466;-68
2022/02/08 23:59:48;;;;;;;26.33;19.10;;;;;;;7.98;100.00;102162.72;9999050;29;20127;-68
